Truthville, New York
Current Conditions -  °F | °C
As of 2:53 PM on Saturday 25 Oct 2014 (Local Time) from KGFL Reporting Station
Broken Clouds Broken Clouds  
Wind Chill: 60°   Ceiling: 4900
Heat Index: 60°   Visibility: 10mi
Dew Point: 46°   Wind: 10mph
Humidity: 60%   Direction: 210°SSW
Pressure: 29.61"   Gusts: NA
Location:  43.3389°N, 73.3194°W
Report Text: KGFL 251853Z AUTO 21009KT 10SM SCT041 BKN049 16/08 A2961 RMK AO2 SLP030 T01560078
Loading
Personal Weather Stations






























Interactive Weather Map
Tropical Storm Tracking
New forecast layout! Learn more

10-Day Weather Forecast

Advertisements
Track Severe Weather on mobile